Time;durP1;ratioP1;P1;durP2;ratioP2;P2;SDS_P1;SDS_P2;PMS_P1;PMS_P2;Temp;Humidity;BMP_temperature;BMP_pressure;BME280_temperature;BME280_humidity;BME280_pressure;Samples;Min_cycle;Max_cycle;Signal;HPM_P1;HPM_P2
2023/07/09 00:00:55;;;;;;;6.37;3.77;;;21.00;99.90;;;21.71;100.00;98433.38;4959875;28;20461;-82
2023/07/09 00:03:26;;;;;;;5.60;3.63;;;21.00;99.90;;;21.68;100.00;98442.66;4960790;28;21282;-82
2023/07/09 00:05:56;;;;;;;7.30;4.37;;;21.00;99.90;;;21.55;100.00;98440.38;4966881;28;20479;-82
2023/07/09 00:08:30;;;;;;;7.47;3.80;;;20.90;99.90;;;21.46;100.00;98433.88;4965233;28;20464;-83
2023/07/09 00:11:00;;;;;;;7.57;3.43;;;20.80;99.90;;;21.39;100.00;98436.72;4961785;28;20464;-82
2023/07/09 00:13:30;;;;;;;5.87;3.80;;;20.80;99.90;;;21.32;100.00;98438.75;4966424;28;20518;-83
2023/07/09 00:16:08;;;;;;;14.13;4.30;;;20.70;99.90;;;21.29;100.00;98436.59;4966034;28;20523;-82
2023/07/09 00:18:40;;;;;;;9.47;4.57;;;20.70;99.90;;;21.34;100.00;98435.84;4959115;28;20911;-82
2023/07/09 00:21:11;;;;;;;12.23;7.67;;;20.70;99.90;;;21.30;100.00;98432.88;4967038;28;20453;-82
2023/07/09 00:23:42;;;;;;;6.00;4.20;;;20.70;99.90;;;21.27;100.00;98433.38;4958910;28;20460;-82
2023/07/09 00:26:14;;;;;;;7.83;3.93;;;20.60;99.90;;;21.21;100.00;98434.34;4961776;28;20513;-81
2023/07/09 00:28:44;;;;;;;10.33;4.80;;;20.60;99.90;;;21.23;100.00;98437.56;4960036;28;21015;-82
2023/07/09 00:31:17;;;;;;;8.00;4.13;;;20.60;99.90;;;21.21;100.00;98437.00;4961323;28;20469;-82
2023/07/09 00:33:49;;;;;;;5.17;3.43;;;20.50;99.90;;;21.23;100.00;98431.44;4960584;28;20510;-81
2023/07/09 00:36:31;;;;;;;16.00;4.60;;;20.50;99.90;;;21.17;100.00;98429.78;4962542;28;20540;-82
2023/07/09 00:39:04;;;;;;;5.40;3.17;;;20.50;99.90;;;21.12;100.00;98435.00;4962739;28;20465;-82
2023/07/09 00:41:37;;;;;;;5.43;3.43;;;20.50;99.90;;;21.10;100.00;98429.94;4958026;28;20481;-82
2023/07/09 00:44:33;;;;;;;6.10;4.00;;;20.50;99.90;;;21.05;100.00;98429.84;4958346;28;20469;-82
2023/07/09 00:47:30;;;;;;;6.93;3.90;;;20.40;99.90;;;21.00;100.00;98433.22;4961144;28;20490;-82
2023/07/09 00:50:13;;;;;;;10.10;4.07;;;20.40;99.90;;;20.97;100.00;98424.94;4957016;28;21070;-81
2023/07/09 00:52:53;;;;;;;10.83;4.43;;;20.30;99.90;;;20.93;100.00;98426.50;4959578;28;20855;-82
2023/07/09 00:55:32;;;;;;;8.20;4.10;;;20.30;99.90;;;20.86;100.00;98425.84;4957037;28;21142;-82
2023/07/09 00:58:09;;;;;;;6.87;3.77;;;20.30;99.90;;;20.85;100.00;98432.22;4958148;28;20469;-82
2023/07/09 01:00:47;;;;;;;7.27;4.30;;;20.20;99.90;;;20.82;100.00;98433.50;4957277;28;20466;-82
2023/07/09 01:03:29;;;;;;;8.57;4.23;;;20.20;99.90;;;20.80;100.00;98427.59;4956605;28;20565;-87
2023/07/09 01:06:01;;;;;;;7.40;4.50;;;20.20;99.90;;;20.74;100.00;98431.25;4958413;28;20472;-88
2023/07/09 01:08:35;;;;;;;6.10;4.00;;;20.20;99.90;;;20.68;100.00;98428.75;4955583;28;20468;-86
2023/07/09 01:11:08;;;;;;;9.43;3.87;;;20.20;99.90;;;20.67;100.00;98435.91;4957515;28;20472;-82
2023/07/09 01:13:39;;;;;;;6.90;3.90;;;20.10;99.90;;;20.69;100.00;98435.69;4956578;28;20477;-83
2023/07/09 01:16:09;;;;;;;6.67;3.70;;;20.00;99.90;;;20.72;100.00;98429.88;4959956;28;20471;-82
2023/07/09 01:18:41;;;;;;;4.73;3.30;;;20.00;99.90;;;20.67;100.00;98438.56;4961187;28;20598;-82
2023/07/09 01:21:15;;;;;;;5.57;3.77;;;20.10;99.90;;;20.65;100.00;98434.56;4958757;28;20476;-82
2023/07/09 01:23:49;;;;;;;5.33;4.10;;;20.00;99.90;;;20.56;100.00;98429.63;4964573;28;20512;-82
2023/07/09 01:26:24;;;;;;;7.87;4.43;;;20.00;99.90;;;20.57;100.00;98428.59;4963847;28;20541;-83
2023/07/09 01:28:55;;;;;;;7.17;4.20;;;20.00;99.90;;;20.56;100.00;98428.81;4961174;28;20460;-82
2023/07/09 01:31:24;;;;;;;5.93;3.60;;;20.00;99.90;;;20.51;100.00;98428.75;4959061;28;20907;-83
2023/07/09 01:33:54;;;;;;;10.30;4.47;;;19.90;99.90;;;20.48;100.00;98435.34;4958284;28;20469;-82
2023/07/09 01:36:26;;;;;;;9.70;3.50;;;19.90;99.90;;;20.43;100.00;98432.63;4956809;28;20461;-82
2023/07/09 01:38:56;;;;;;;7.30;3.77;;;19.80;99.90;;;20.40;100.00;98427.78;4958654;28;20469;-82
2023/07/09 01:41:26;;;;;;;7.80;4.27;;;19.80;99.90;;;20.36;100.00;98428.50;4958262;28;20895;-82
2023/07/09 01:43:56;;;;;;;8.40;4.13;;;19.80;99.90;;;20.31;100.00;98434.53;4956459;28;20493;-82
2023/07/09 01:46:27;;;;;;;12.20;4.30;;;19.70;99.90;;;20.25;100.00;98427.47;4959047;28;21230;-82
2023/07/09 01:48:57;;;;;;;5.37;3.90;;;19.70;99.90;;;20.20;100.00;98438.00;4960991;28;20457;-82
2023/07/09 01:51:30;;;;;;;6.20;4.00;;;19.70;99.90;;;20.29;100.00;98433.16;4957734;28;20979;-82
2023/07/09 01:53:59;;;;;;;7.33;3.40;;;19.60;99.90;;;20.34;100.00;98430.59;4957713;28;20468;-83
2023/07/09 01:56:30;;;;;;;6.50;3.33;;;19.60;99.90;;;20.33;100.00;98432.44;4959975;28;20492;-82
2023/07/09 01:59:01;;;;;;;9.27;4.50;;;19.60;99.90;;;20.31;100.00;98439.03;4966983;28;20534;-82
2023/07/09 02:01:33;;;;;;;7.87;4.27;;;19.60;99.90;;;20.23;100.00;98434.91;4966473;28;20465;-82
2023/07/09 02:04:03;;;;;;;9.00;4.03;;;19.60;99.90;;;20.20;100.00;98431.91;4964952;28;20496;-82
2023/07/09 02:06:34;;;;;;;5.60;3.87;;;19.60;99.90;;;20.14;100.00;98438.97;4967866;28;20504;-82
2023/07/09 02:09:05;;;;;;;5.73;4.07;;;19.50;99.90;;;20.11;100.00;98447.41;4962379;28;20460;-82
2023/07/09 02:11:35;;;;;;;7.37;4.30;;;19.50;99.90;;;20.14;100.00;98443.47;4964982;28;20552;-82
2023/07/09 02:14:05;;;;;;;6.37;3.90;;;19.50;99.90;;;20.15;100.00;98445.09;4964361;28;20461;-82
2023/07/09 02:16:35;;;;;;;8.93;4.17;;;19.40;99.90;;;20.12;100.00;98438.41;4965159;28;21040;-83
2023/07/09 02:19:05;;;;;;;5.40;3.70;;;19.40;99.90;;;20.10;100.00;98435.16;4965989;28;20518;-82
2023/07/09 02:21:37;;;;;;;6.43;4.30;;;19.40;99.90;;;20.03;100.00;98442.47;4966927;28;20485;-82
2023/07/09 02:24:08;;;;;;;8.20;4.20;;;19.40;99.90;;;19.96;100.00;98437.31;4963360;28;20484;-82
2023/07/09 02:26:38;;;;;;;7.17;4.07;;;19.30;99.90;;;19.96;100.00;98441.81;4960971;28;20468;-82
2023/07/09 02:29:09;;;;;;;5.80;3.77;;;19.30;99.90;;;19.96;100.00;98442.63;4965068;28;21032;-82
2023/07/09 02:31:40;;;;;;;7.60;4.30;;;19.30;99.90;;;19.96;100.00;98436.50;4963913;28;20886;-82
2023/07/09 02:34:10;;;;;;;7.70;4.20;;;19.30;99.90;;;19.93;100.00;98436.97;4960817;28;20967;-82
2023/07/09 02:36:43;;;;;;;6.37;4.00;;;19.20;99.90;;;19.83;100.00;98436.78;4960905;28;20465;-83
2023/07/09 02:39:14;;;;;;;9.53;4.10;;;19.20;99.90;;;19.81;100.00;98441.53;4960358;28;20469;-83
2023/07/09 02:41:44;;;;;;;9.93;4.10;;;19.20;99.90;;;19.80;100.00;98445.22;4958915;28;20461;-83
2023/07/09 02:44:14;;;;;;;15.87;4.97;;;19.20;99.90;;;19.75;100.00;98445.16;4960882;28;20503;-82
2023/07/09 02:46:43;;;;;;;7.07;4.30;;;19.20;99.90;;;19.65;100.00;98447.56;4963266;28;20563;-82
2023/07/09 02:49:16;;;;;;;5.13;3.63;;;19.10;99.90;;;19.71;100.00;98444.81;4962337;28;20465;-82
2023/07/09 02:51:47;;;;;;;6.80;4.13;;;19.10;99.90;;;19.68;100.00;98445.25;4965764;28;20942;-83
2023/07/09 02:54:18;;;;;;;8.60;4.20;;;19.10;99.90;;;19.64;100.00;98449.44;4965198;28;20522;-82
2023/07/09 02:56:49;;;;;;;7.10;3.67;;;19.00;99.90;;;19.63;100.00;98447.00;4966622;28;20475;-82
2023/07/09 02:59:20;;;;;;;5.37;4.10;;;19.00;99.90;;;19.59;100.00;98457.28;4966520;28;20560;-82
2023/07/09 03:01:50;;;;;;;7.33;3.90;;;19.00;99.90;;;19.57;100.00;98454.88;4963946;28;20468;-82
2023/07/09 03:04:21;;;;;;;10.83;5.20;;;19.00;99.90;;;19.57;100.00;98452.25;4963615;28;20512;-82
2023/07/09 03:06:51;;;;;;;6.87;4.53;;;18.90;99.90;;;19.60;100.00;98458.91;4963648;28;20465;-82
2023/07/09 03:09:22;;;;;;;7.63;4.13;;;18.90;99.90;;;19.57;100.00;98460.19;4963105;28;20461;-82
2023/07/09 03:11:51;;;;;;;7.53;4.40;;;18.90;99.90;;;19.55;100.00;98464.09;4969221;28;20515;-82
2023/07/09 03:14:20;;;;;;;6.83;3.90;;;18.90;99.90;;;19.52;100.00;98470.69;4965576;28;20542;-82
2023/07/09 03:16:50;;;;;;;5.07;3.60;;;18.90;99.90;;;19.48;100.00;98466.88;4963829;28;20476;-82
2023/07/09 03:19:20;;;;;;;6.47;3.87;;;18.90;99.90;;;19.47;100.00;98467.91;4959660;28;20587;-82
2023/07/09 03:21:52;;;;;;;4.47;3.50;;;18.90;99.90;;;19.47;100.00;98472.44;4963779;28;20526;-82
2023/07/09 03:24:21;;;;;;;8.80;4.83;;;18.80;99.90;;;19.45;100.00;98467.34;4963898;28;20588;-82
2023/07/09 03:26:52;;;;;;;7.57;3.53;;;18.80;99.90;;;19.44;100.00;98476.34;4964750;28;20468;-82
2023/07/09 03:29:23;;;;;;;6.43;4.63;;;18.80;99.90;;;19.44;100.00;98475.53;4961099;28;20457;-82
2023/07/09 03:31:52;;;;;;;11.70;4.20;;;18.80;99.90;;;19.45;100.00;98477.16;4961647;28;20465;-83
2023/07/09 03:34:23;;;;;;;6.20;4.10;;;18.80;99.90;;;19.39;100.00;98478.88;4965012;28;20472;-82
2023/07/09 03:36:55;;;;;;;6.17;3.90;;;18.70;99.90;;;19.35;100.00;98482.22;4963807;28;20836;-82
2023/07/09 03:39:25;;;;;;;5.43;3.90;;;18.70;99.90;;;19.33;100.00;98486.97;4963257;28;20460;-82
2023/07/09 03:41:56;;;;;;;7.07;4.20;;;18.70;99.90;;;19.24;100.00;98489.13;4962302;28;20469;-82
2023/07/09 03:44:26;;;;;;;6.30;4.10;;;18.70;99.90;;;19.21;100.00;98484.31;4965451;28;20516;-82
2023/07/09 03:46:56;;;;;;;9.70;3.67;;;18.60;99.90;;;19.16;100.00;98494.78;4961384;28;20573;-82
2023/07/09 03:49:25;;;;;;;5.53;3.93;;;18.60;99.90;;;19.14;100.00;98488.91;4961354;28;22390;-82
2023/07/09 03:51:55;;;;;;;12.27;3.90;;;18.60;99.90;;;19.11;100.00;98497.34;4963619;28;20491;-83
2023/07/09 03:54:25;;;;;;;7.70;4.03;;;18.50;99.90;;;19.17;100.00;98487.63;4962376;28;20494;-82
2023/07/09 03:56:55;;;;;;;8.50;4.47;;;18.50;99.90;;;19.16;100.00;98497.44;4961955;28;20471;-82
2023/07/09 03:59:25;;;;;;;5.97;4.37;;;18.50;99.90;;;19.14;100.00;98494.22;4962459;28;20467;-82
2023/07/09 04:01:56;;;;;;;8.57;4.33;;;18.50;99.90;;;19.11;100.00;98497.34;4957911;28;20551;-82
2023/07/09 04:04:26;;;;;;;9.47;4.27;;;18.50;99.90;;;19.09;100.00;98499.38;4962176;28;21461;-82
2023/07/09 04:06:58;;;;;;;8.17;4.80;;;18.50;99.90;;;19.12;100.00;98498.94;4961152;28;20564;-82
2023/07/09 04:09:28;;;;;;;7.60;4.20;;;18.40;99.90;;;19.10;100.00;98495.72;4957668;28;20477;-82
2023/07/09 04:12:01;;;;;;;7.60;4.30;;;18.40;99.90;;;19.15;100.00;98498.50;4962172;28;20972;-82
2023/07/09 04:14:31;;;;;;;4.70;3.50;;;18.40;99.90;;;19.21;100.00;98505.50;4967897;28;21350;-82
2023/07/09 04:17:00;;;;;;;6.23;3.93;;;18.40;99.90;;;19.19;100.00;98502.31;4964303;28;20457;-82
2023/07/09 04:19:30;;;;;;;7.87;4.70;;;18.40;99.90;;;19.19;100.00;98506.78;4963552;28;20529;-82
2023/07/09 04:22:02;;;;;;;6.33;3.90;;;18.50;99.90;;;19.20;100.00;98503.91;4960332;28;20534;-82
2023/07/09 04:24:33;;;;;;;7.33;3.83;;;18.50;99.90;;;19.21;100.00;98508.16;4966610;28;20507;-82
2023/07/09 04:27:03;;;;;;;5.93;3.70;;;18.50;99.90;;;19.22;100.00;98506.31;4964296;28;20456;-82
2023/07/09 04:29:35;;;;;;;7.33;4.20;;;18.50;99.90;;;19.24;100.00;98506.88;4962694;28;20465;-82
2023/07/09 04:32:06;;;;;;;8.87;4.60;;;18.50;99.90;;;19.24;100.00;98512.19;4961309;28;20472;-82
2023/07/09 04:34:38;;;;;;;8.37;4.20;;;18.50;99.90;;;19.24;100.00;98509.53;4962990;28;20461;-82
2023/07/09 04:37:12;;;;;;;9.47;4.33;;;18.50;99.90;;;19.23;100.00;98513.25;4961403;28;20496;-82
2023/07/09 04:39:43;;;;;;;10.00;3.67;;;18.50;99.90;;;19.22;100.00;98515.09;4963307;28;20543;-82
2023/07/09 04:42:17;;;;;;;7.10;3.80;;;18.50;99.90;;;19.21;100.00;98516.13;4963578;28;20930;-83
2023/07/09 04:44:48;;;;;;;9.17;4.77;;;18.50;99.90;;;19.25;100.00;98511.97;4960801;28;20528;-84
2023/07/09 04:47:18;;;;;;;22.87;4.47;;;18.50;99.90;;;19.26;100.00;98508.28;4962690;28;20465;-82
2023/07/09 04:49:49;;;;;;;10.40;4.33;;;18.50;99.90;;;19.28;100.00;98508.84;4957386;28;20489;-83
2023/07/09 04:52:22;;;;;;;5.37;3.70;;;18.50;99.90;;;19.27;100.00;98509.88;4959317;28;20534;-83
2023/07/09 04:54:53;;;;;;;6.90;3.80;;;18.50;99.90;;;19.29;100.00;98509.66;4958989;28;20571;-82
2023/07/09 04:57:22;;;;;;;7.00;4.43;;;18.50;99.90;;;19.34;100.00;98507.94;4958199;28;20891;-82
2023/07/09 04:59:52;;;;;;;11.20;3.83;;;18.50;99.90;;;19.38;100.00;98493.16;4958930;28;20562;-82
2023/07/09 05:02:21;;;;;;;8.90;4.27;;;18.60;99.90;;;19.38;100.00;98498.47;4959490;28;21009;-82
2023/07/09 05:04:53;;;;;;;6.43;4.40;;;18.60;99.90;;;19.44;100.00;98496.75;4958126;28;20505;-83
2023/07/09 05:07:23;;;;;;;5.43;3.70;;;18.60;99.90;;;19.50;100.00;98498.50;4958134;28;20469;-82
2023/07/09 05:09:52;;;;;;;7.70;4.50;;;18.70;99.90;;;19.59;100.00;98489.94;4958165;28;20465;-82
2023/07/09 05:12:21;;;;;;;6.90;4.13;;;18.70;99.90;;;19.66;100.00;98492.47;4960513;28;20481;-82
2023/07/09 05:14:51;;;;;;;10.27;4.50;;;18.70;99.90;;;19.70;100.00;98490.97;4959648;28;20476;-82
2023/07/09 05:17:20;;;;;;;7.70;4.33;;;18.80;99.90;;;19.71;100.00;98487.28;4957262;28;20485;-83
2023/07/09 05:19:50;;;;;;;8.10;4.70;;;18.90;99.90;;;19.71;100.00;98492.59;4956646;28;20499;-82
2023/07/09 05:22:19;;;;;;;9.63;4.57;;;18.90;99.90;;;19.71;100.00;98495.25;4958980;28;20468;-82
2023/07/09 05:24:51;;;;;;;9.23;4.53;;;18.90;99.90;;;19.74;100.00;98492.09;4965190;28;20506;-82
2023/07/09 05:27:21;;;;;;;11.67;5.17;;;19.00;99.90;;;19.79;100.00;98486.06;4957995;28;20468;-82
2023/07/09 05:29:51;;;;;;;8.33;4.37;;;19.00;99.90;;;19.81;100.00;98487.47;4962308;28;20543;-82
2023/07/09 05:32:22;;;;;;;6.17;4.50;;;19.00;99.90;;;19.86;100.00;98492.88;4967027;28;20469;-82
2023/07/09 05:34:52;;;;;;;10.50;4.53;;;19.00;99.90;;;19.90;100.00;98490.56;4963616;28;20466;-82
2023/07/09 05:37:21;;;;;;;6.57;4.23;;;19.10;99.90;;;19.91;100.00;98487.69;4961378;28;20476;-82
2023/07/09 05:39:53;;;;;;;12.20;4.13;;;19.10;99.90;;;19.93;100.00;98490.06;4962654;28;20488;-82
2023/07/09 05:42:22;;;;;;;7.97;4.50;;;19.20;99.90;;;19.97;100.00;98486.72;4964804;28;20587;-82
2023/07/09 05:44:52;;;;;;;6.03;4.30;;;19.20;99.90;;;20.04;100.00;98482.09;4966209;28;21026;-82
2023/07/09 05:47:21;;;;;;;7.27;4.70;;;19.20;99.90;;;20.12;100.00;98488.88;4962840;28;20469;-82
2023/07/09 05:49:50;;;;;;;7.37;4.73;;;19.20;99.90;;;20.18;100.00;98482.59;4964814;28;20551;-82
2023/07/09 05:52:22;;;;;;;8.50;5.07;;;19.30;99.90;;;20.25;100.00;98487.75;4961942;28;20534;-82
2023/07/09 05:54:54;;;;;;;8.73;4.87;;;19.30;99.90;;;20.28;100.00;98482.00;4956477;28;20470;-86
2023/07/09 05:57:24;;;;;;;14.30;6.53;;;19.40;99.90;;;20.33;100.00;98484.75;4961967;28;20989;-82
2023/07/09 05:59:54;;;;;;;8.80;6.00;;;19.40;99.90;;;20.38;100.00;98484.84;4961730;28;20464;-82
2023/07/09 06:02:24;;;;;;;8.50;5.00;;;19.50;99.90;;;20.43;100.00;98485.75;4962886;28;20479;-83
2023/07/09 06:04:54;;;;;;;8.20;4.47;;;19.50;99.90;;;20.47;100.00;98492.22;4964597;28;20945;-82
2023/07/09 06:07:24;;;;;;;8.00;4.70;;;19.60;99.90;;;20.52;100.00;98483.50;4960838;28;20844;-82
2023/07/09 06:09:57;;;;;;;6.27;4.20;;;19.60;99.90;;;20.58;100.00;98483.34;4963469;28;20474;-82
2023/07/09 06:12:27;;;;;;;7.30;4.63;;;19.60;99.90;;;20.64;100.00;98491.41;4957522;28;20816;-84
2023/07/09 06:14:57;;;;;;;6.73;3.93;;;19.70;99.90;;;20.68;100.00;98482.72;4965825;28;20471;-82
2023/07/09 06:17:26;;;;;;;9.40;4.70;;;19.80;99.90;;;20.74;100.00;98486.25;4957809;28;20475;-83
2023/07/09 06:19:56;;;;;;;6.73;3.80;;;19.80;99.90;;;20.79;100.00;98483.69;4961006;28;21165;-82
2023/07/09 06:22:28;;;;;;;8.10;4.80;;;19.90;99.90;;;20.83;100.00;98480.28;4959693;28;20530;-82
2023/07/09 06:24:59;;;;;;;30.73;11.20;;;19.90;99.90;;;20.90;100.00;98480.13;4961564;28;21220;-86
2023/07/09 06:27:28;;;;;;;9.77;5.70;;;20.00;99.90;;;20.93;100.00;98485.75;4958099;28;20473;-82
2023/07/09 06:29:57;;;;;;;11.57;7.23;;;20.00;99.90;;;20.99;100.00;98487.47;4957434;28;20461;-82
2023/07/09 06:32:28;;;;;;;7.97;5.07;;;20.10;99.90;;;21.04;100.00;98484.06;4958182;28;20464;-81
2023/07/09 06:34:58;;;;;;;8.13;5.30;;;20.10;99.90;;;21.09;100.00;98486.81;4963617;28;20501;-82
2023/07/09 06:37:28;;;;;;;9.60;4.77;;;20.20;99.90;;;21.14;100.00;98480.81;4962659;28;20478;-81
2023/07/09 06:39:59;;;;;;;6.67;4.50;;;20.20;99.90;;;21.22;100.00;98481.19;4957285;28;21046;-82
2023/07/09 06:42:28;;;;;;;88.67;48.50;;;20.30;99.90;;;21.26;100.00;98471.66;4960324;28;20508;-85
2023/07/09 06:44:58;;;;;;;37.00;18.97;;;20.40;99.90;;;21.33;100.00;98482.13;4957139;28;21262;-82
2023/07/09 06:47:37;;;;;;;9.77;4.77;;;20.40;99.90;;;21.39;100.00;98489.94;4958755;28;20500;-81
2023/07/09 06:50:09;;;;;;;11.80;5.87;;;20.50;99.90;;;21.45;100.00;98485.50;4959732;28;20512;-81
2023/07/09 06:52:39;;;;;;;6.47;4.30;;;20.50;99.90;;;21.50;100.00;98480.22;4957270;28;20464;-83
2023/07/09 06:55:11;;;;;;;7.73;4.33;;;20.60;99.90;;;21.56;100.00;98480.06;4958002;28;20472;-82
2023/07/09 06:57:42;;;;;;;7.43;4.10;;;20.70;99.90;;;21.61;100.00;98478.50;4957569;28;20931;-82
2023/07/09 07:00:13;;;;;;;10.07;4.40;;;20.70;99.90;;;21.67;100.00;98477.53;4956348;28;20987;-86
2023/07/09 07:02:43;;;;;;;14.20;7.57;;;20.70;99.90;;;21.73;100.00;98473.88;4960437;28;20472;-82
2023/07/09 07:05:13;;;;;;;7.87;5.53;;;20.90;99.90;;;21.79;100.00;98472.88;4962162;28;20579;-82
2023/07/09 07:07:43;;;;;;;8.80;4.47;;;20.90;99.90;;;21.85;100.00;98479.88;4960914;28;20469;-81
2023/07/09 07:10:14;;;;;;;6.73;4.50;;;20.90;99.90;;;21.91;100.00;98470.91;4963327;28;20499;-82
2023/07/09 07:12:46;;;;;;;18.67;8.30;;;21.00;99.90;;;21.96;100.00;98463.81;4962481;28;20989;-81
2023/07/09 07:15:18;;;;;;;8.37;5.57;;;21.10;99.90;;;22.04;100.00;98467.88;4962759;28;20468;-82
2023/07/09 07:17:49;;;;;;;7.87;4.43;;;21.10;99.90;;;22.10;100.00;98463.41;4961403;28;20507;-82
2023/07/09 07:20:20;;;;;;;8.97;4.80;;;21.20;99.90;;;22.17;100.00;98462.16;4960652;28;20507;-82
2023/07/09 07:22:51;;;;;;;8.30;4.70;;;21.30;99.90;;;22.23;100.00;98466.47;4966982;28;20473;-83
2023/07/09 07:25:22;;;;;;;7.83;4.40;;;21.40;99.90;;;22.30;100.00;98466.28;4969502;28;20501;-83
2023/07/09 07:27:53;;;;;;;7.70;4.43;;;21.40;99.90;;;22.37;100.00;98467.69;4962169;28;20470;-83
2023/07/09 07:30:24;;;;;;;48.97;32.50;;;21.50;99.90;;;22.44;100.00;98460.28;4959342;28;20476;-88
2023/07/09 07:32:54;;;;;;;14.77;8.53;;;21.60;99.90;;;22.53;100.00;98464.09;4957947;28;20467;-84
2023/07/09 07:35:25;;;;;;;9.43;5.93;;;21.70;99.90;;;22.61;100.00;98454.81;4958508;28;20477;-84
2023/07/09 07:37:56;;;;;;;7.30;4.90;;;21.80;99.90;;;22.72;100.00;98458.41;4961522;28;20565;-84
2023/07/09 07:40:29;;;;;;;10.13;5.67;;;21.90;99.90;;;22.82;100.00;98461.97;4963424;28;20873;-83
2023/07/09 07:43:00;;;;;;;7.10;4.37;;;22.00;99.90;;;22.93;100.00;98465.50;4956427;28;20603;-84
2023/07/09 07:45:30;;;;;;;8.63;4.90;;;22.00;99.90;;;23.03;100.00;98460.25;4957465;28;20546;-84
2023/07/09 07:48:01;;;;;;;7.57;4.60;;;22.20;99.90;;;23.14;100.00;98464.59;4961406;28;20900;-84
2023/07/09 07:50:32;;;;;;;240.83;153.10;;;22.30;99.90;;;23.26;100.00;98461.69;4959039;28;20477;-83
2023/07/09 07:53:02;;;;;;;14.47;7.10;;;22.40;99.90;;;23.37;100.00;98461.50;4962435;28;20464;-84
2023/07/09 07:55:33;;;;;;;12.80;5.40;;;22.50;99.90;;;23.48;100.00;98465.06;4965270;28;20543;-84
2023/07/09 07:58:04;;;;;;;6.40;4.70;;;22.70;99.90;;;23.62;100.00;98460.06;4959347;28;21015;-83
2023/07/09 08:00:34;;;;;;;6.70;3.60;;;22.80;99.90;;;23.74;100.00;98456.09;4961565;28;20515;-84
2023/07/09 08:03:06;;;;;;;11.23;4.17;;;22.90;99.90;;;23.86;100.00;98456.69;4957074;28;20464;-84
2023/07/09 08:05:35;;;;;;;8.23;4.67;;;23.10;99.90;;;23.97;100.00;98454.84;4959737;28;20497;-84
2023/07/09 08:08:08;;;;;;;10.27;4.50;;;23.20;99.90;;;24.05;100.00;98457.00;4960524;28;20465;-84
2023/07/09 08:10:43;;;;;;;7.17;4.20;;;23.30;99.90;;;24.15;100.00;98449.03;4960338;28;20471;-84
2023/07/09 08:13:13;;;;;;;13.47;4.27;;;23.40;99.90;;;24.22;100.00;98449.59;4961924;28;20484;-83
2023/07/09 08:15:45;;;;;;;5.43;4.20;;;23.40;99.90;;;24.29;100.00;98452.81;4959989;28;20468;-84
2023/07/09 08:18:16;;;;;;;10.27;4.13;;;23.50;99.90;;;24.35;100.00;98443.72;4961234;28;20468;-84
2023/07/09 08:20:46;;;;;;;16.13;4.20;;;23.60;99.90;;;24.44;100.00;98452.81;4961513;28;20472;-88
2023/07/09 08:23:15;;;;;;;21.53;7.70;;;23.70;99.90;;;24.54;100.00;98441.31;4977141;28;20471;-83
2023/07/09 08:25:54;;;;;;;7.30;4.40;;;23.80;99.90;;;24.62;100.00;98438.13;4961751;28;20476;-83
2023/07/09 08:28:25;;;;;;;7.30;4.10;;;23.90;99.90;;;24.70;100.00;98436.78;4961800;28;21353;-83
2023/07/09 08:30:58;;;;;;;9.33;3.87;;;23.90;99.90;;;24.78;100.00;98438.94;4966163;28;20556;-84
2023/07/09 08:33:28;;;;;;;9.50;4.67;;;24.00;99.90;;;24.84;100.00;98429.84;4960589;28;20468;-83
2023/07/09 08:36:00;;;;;;;9.07;4.40;;;24.10;99.90;;;24.92;100.00;98427.41;4961636;28;20472;-83
2023/07/09 08:38:29;;;;;;;6.33;4.00;;;24.20;99.90;;;25.02;100.00;98418.59;4959937;28;20470;-83
2023/07/09 08:41:04;;;;;;;6.80;4.00;;;24.30;99.90;;;25.14;100.00;98423.63;4962224;28;20504;-83
2023/07/09 08:43:49;;;;;;;7.20;4.30;;;24.40;99.90;;;25.22;100.00;98418.53;4962738;28;20468;-82
2023/07/09 08:46:33;;;;;;;9.00;5.50;;;24.50;99.90;;;25.34;100.00;98410.97;4960738;28;20588;-83
2023/07/09 08:49:13;;;;;;;7.30;4.97;;;24.60;99.90;;;25.47;99.00;98415.78;4962343;28;20479;-83
2023/07/09 08:51:44;;;;;;;9.43;4.93;;;24.70;99.60;;;25.57;99.34;98414.16;4961366;28;20468;-84
2023/07/09 08:54:27;;;;;;;8.80;5.30;;;24.80;99.40;;;25.67;96.63;98411.41;4960014;28;20976;-83
2023/07/09 08:57:20;;;;;;;5.37;4.27;;;24.90;99.10;;;25.85;93.55;98419.63;4964326;28;20506;-83
2023/07/09 08:59:54;;;;;;;6.73;4.83;;;25.10;98.70;;;25.97;92.54;98422.78;4953786;28;20473;-82
2023/07/09 09:02:36;;;;;;;6.80;3.40;;;25.20;98.60;;;26.13;89.81;98428.84;4957304;28;20957;-83
2023/07/09 09:05:08;;;;;;;10.67;4.07;;;25.30;97.80;;;26.26;87.93;98414.84;4963114;28;20476;-83
2023/07/09 09:07:44;;;;;;;7.10;3.50;;;25.50;97.80;;;26.35;88.46;98415.84;4956716;28;20493;-83
2023/07/09 09:10:20;;;;;;;7.83;4.00;;;25.60;97.70;;;26.45;88.12;98417.63;4960775;28;20484;-83
2023/07/09 09:13:06;;;;;;;9.33;3.90;;;25.70;97.70;;;26.67;83.97;98409.16;4953526;28;20472;-84
2023/07/09 09:15:37;;;;;;;5.93;3.83;;;25.90;97.10;;;26.77;85.35;98403.69;4954227;28;20475;-85
2023/07/09 09:18:25;;;;;;;14.57;8.70;;;26.00;97.00;;;26.79;86.04;98409.59;4959155;28;20472;-84
2023/07/09 09:21:02;;;;;;;7.47;4.90;;;25.90;96.90;;;26.82;85.72;98407.16;4959604;28;20476;-84
2023/07/09 09:23:43;;;;;;;13.53;3.87;;;26.00;96.90;;;26.96;83.77;98410.00;4956087;28;20483;-84
2023/07/09 09:26:22;;;;;;;8.27;4.20;;;26.20;96.80;;;26.99;84.39;98402.16;4959883;28;20476;-83
2023/07/09 09:28:55;;;;;;;9.70;3.60;;;26.20;96.60;;;27.02;83.78;98404.28;4957278;28;20469;-84
2023/07/09 09:31:28;;;;;;;8.00;3.60;;;26.20;96.50;;;27.20;79.48;98392.00;4957342;28;20472;-85
2023/07/09 09:33:58;;;;;;;9.67;4.17;;;26.40;95.70;;;27.30;79.50;98389.19;4956205;28;20497;-84
2023/07/09 09:36:29;;;;;;;8.07;3.90;;;26.50;95.40;;;27.34;79.95;98379.47;4956667;28;21038;-84
2023/07/09 09:39:03;;;;;;;6.27;3.20;;;26.50;95.90;;;27.40;79.80;98375.63;4955644;28;20469;-85
2023/07/09 09:41:38;;;;;;;6.37;3.23;;;26.60;95.70;;;27.48;78.61;98372.34;4960683;28;20476;-83
2023/07/09 09:44:20;;;;;;;20.83;13.20;;;26.70;95.00;;;27.54;73.75;98369.59;4959589;28;20460;-83
2023/07/09 09:46:50;;;;;;;4.53;3.30;;;26.80;94.60;;;27.62;73.13;98372.44;4959589;28;21156;-82
2023/07/09 09:49:21;;;;;;;5.47;2.87;;;26.80;94.20;;;27.83;69.13;98367.59;4956188;28;20563;-82
2023/07/09 09:51:50;;;;;;;9.40;4.40;;;27.00;93.00;;;28.03;64.61;98369.97;4958723;28;20465;-83
2023/07/09 09:54:25;;;;;;;6.73;3.50;;;27.20;91.70;;;28.21;63.74;98376.44;4959604;28;20473;-82
2023/07/09 09:56:56;;;;;;;5.27;3.53;;;27.30;91.60;;;28.21;64.73;98379.94;4959514;28;20494;-84
2023/07/09 09:59:37;;;;;;;7.13;3.33;;;27.30;91.70;;;28.25;64.84;98386.34;4960083;28;20472;-83
2023/07/09 10:02:19;;;;;;;8.17;3.70;;;27.40;91.70;;;28.33;63.78;98377.59;4956375;28;20583;-92
2023/07/09 10:04:50;;;;;;;7.90;3.43;;;27.50;91.80;;;28.45;61.19;98377.94;4958776;28;20920;-83
2023/07/09 10:07:30;;;;;;;4.00;3.10;;;27.60;90.60;;;28.54;60.85;98369.16;4956908;28;20548;-83
2023/07/09 10:10:00;;;;;;;19.20;3.60;;;27.70;91.00;;;28.60;62.35;98370.69;4961067;28;20560;-83
2023/07/09 10:12:42;;;;;;;7.40;3.00;;;27.80;91.20;;;28.57;62.38;98366.69;4960437;28;20464;-83
2023/07/09 10:15:31;;;;;;;8.47;3.87;;;27.70;91.30;;;28.74;58.64;98371.56;4958875;28;20466;-83
2023/07/09 10:18:15;;;;;;;4.60;3.20;;;28.00;90.50;;;28.80;60.39;98373.84;4957682;28;20464;-83
2023/07/09 10:20:57;;;;;;;4.97;3.70;;;28.00;90.70;;;28.86;59.99;98369.16;4961441;28;20465;-83
2023/07/09 10:23:36;;;;;;;8.90;3.43;;;28.10;90.90;;;29.07;54.65;98365.00;4958399;28;20556;-83
2023/07/09 10:26:14;;;;;;;7.10;3.50;;;28.30;88.20;;;29.25;53.90;98364.09;4960582;28;20859;-83
2023/07/09 10:29:19;;;;;;;8.97;3.33;;;28.60;87.00;;;29.33;54.29;98368.78;4961871;28;20494;-83
2023/07/09 10:32:01;;;;;;;6.67;2.90;;;28.60;87.40;;;29.34;56.10;98375.78;4963627;28;20834;-84
2023/07/09 10:34:44;;;;;;;6.90;3.30;;;28.60;88.30;;;29.47;54.94;98372.28;4963046;28;20854;-83